ADDS METAR Data INFO
IDs: Format: Raw Decoded Include TAF

Data at: 2027 UTC 20 Jul 2018

KBIH 201956Z AUTO 15011G19KT 10SM CLR 36/08 A3003 RMK AO2 LTG DSNT NE SLP108 T03610083
KBIH 201856Z AUTO 15009KT 10SM CLR 34/10 A3006 RMK AO2 LTG DSNT NE SLP121 T03390100
KBIH 201756Z AUTO 18008KT 150V210 10SM CLR 32/10 A3008 RMK AO2 SLP124 T03220100 10328 20167 58003
KBIH 201656Z AUTO VRB03KT 10SM CLR 29/11 A3009 RMK AO2 SLP129 T02940111
KBIH 201556Z AUTO 00000KT 10SM CLR 26/13 A3010 RMK AO2 SLP135 T02560133
KBIH 201456Z AUTO 33004KT 10SM CLR 23/14 A3009 RMK AO2 SLP137 T02330144 51009
KBIH 201356Z AUTO 06003KT 10SM CLR 21/14 A3009 RMK AO2 SLP140 T02060144
KBIH 201256Z AUTO 04004KT 10SM CLR 17/15 A3007 RMK AO2 SLP137 T01720150
KBIH 201156Z AUTO 30004KT 10SM CLR 18/15 A3006 RMK AO2 SLP135 70006 T01780150 10278 20178 58004
KBIH 201056Z AUTO 01004KT 10SM CLR 18/16 A3007 RMK AO2 SLP128 T01780156
KBIH 200956Z AUTO 34003KT 10SM CLR 20/16 A3008 RMK AO2 SLP125 T02000156
KBIH 200856Z AUTO 06007KT 10SM CLR 19/16 A3008 RMK AO2 SLP124 T01940161 58001
KBIH 200756Z AUTO 28005KT 10SM CLR 21/16 A3008 RMK AO2 SLP125 T02110161 403890194
KBIH 200656Z AUTO 33003KT 10SM CLR 22/15 A3008 RMK AO2 SLP125 T02220150
KBIH 200556Z AUTO 18008KT 10SM CLR 27/10 A3008 RMK AO2 SLP121 T02720100 10289 20250 53008
KBIH 200456Z AUTO 17011KT 10SM CLR 28/11 A3007 RMK AO2 SLP120 T02780106
KBIH 200356Z AUTO 17014KT 10SM FEW055 SCT100 BKN120 28/12 A3006 RMK AO2 LTG DSNT SE SLP117 T02830122
KBIH 200256Z AUTO 35006KT 10SM CLR 27/17 A3005 RMK AO2 LTG DSNT SE SLP121 T02720167 53001
KBIH 200156Z AUTO 04005KT 10SM CLR 27/17 A3004 RMK AO2 LTG DSNT E AND SW SLP120 T02670167
KBIH 200056Z AUTO 30006KT 10SM CLR 27/16 A3005 RMK AO2 LTG DSNT E AND S TSE2358 SLP127 T02720161
KBIH 200016Z AUTO 33005KT 10SM FEW110 26/18 A3006 RMK AO2 LTG DSNT NE AND E TSE2358 T02560178
KBIH 200004Z AUTO 35013KT 10SM VCTS SCT110 26/16 A3004 RMK AO2 LTG DSNT NW-E TSE2358 T02560161
KBIH 192356Z AUTO 31013KT 10SM TS BKN110 25/17 A3005 RMK AO2 PK WND 33028/2336 LTG DSNT NW-E RAB17E46 TSB21 SLP126 P0006 60006 T02500167 10389 20239 53015
KBIH 192349Z AUTO 31017KT 2SM TS HZ FEW033 BKN110 24/17 A3005 RMK AO2 PK WND 33028/2336 LTG DSNT NE AND E RAB17E46 TSB21 P0006 T02440167
KBIH 192327Z AUTO 31009KT 4SM +TSRA FEW041 FEW055 OVC110 27/17 A3007 RMK AO2 LTG DSNT N AND E RAB17 TSB21 PRESRR P0002 T02720167
KBIH 192256Z AUTO 34010G20KT 10SM VCTS FEW120 36/09 A3004 RMK AO2 PK WND 26026/2228 WSHFT 2210 LTG DSNT ALQDS TSB22E37 SLP111 T03560089
KBIH 192243Z AUTO 32013G22KT 300V010 10SM VCTS FEW110 35/08 A3003 RMK AO2 PK WND 26026/2228 WSHFT 2210 LTG DSNT ALQDS TSB22E37 T03500083
KBIH 192224Z AUTO 27019G24KT 10SM TS CLR 34/08 A3002 RMK AO2 WSHFT 2210 LTG DSNT ALQDS TSB22 T03390083
KBIH 192156Z AUTO 20009KT 10SM VCTS FEW110 37/08 A3000 RMK AO2 LTG DSNT SE-W SLP095 T03720078
KBIH 192152Z AUTO 10SM VCTS FEW110 37/08 A3000 RMK AO2 LTG DSNT SE-W
KBIH 192056Z AUTO 16011KT 10SM CLR 38/07 A3002 RMK AO2 PK WND 16026/1958 LTG DSNT ALQDS SLP102 T03830072 56023
KBIH 192046Z AUTO 17014G21KT 10SM VCTS CLR 37/08 A3003 RMK AO2 PK WND 16026/1958 LTG DSNT ALQDS T03720078
KBIH 191956Z AUTO 16018G24KT 10SM CLR 38/08 A3004 RMK AO2 LTG DSNT SW-N SLP104 T03780083
KBIH 191856Z AUTO 17014KT 10SM CLR 36/08 A3008 RMK AO2 SLP117 T03560083
KBIH 191756Z AUTO 15008KT 10SM CLR 35/08 A3010 RMK AO2 SLP126 T03500083 10350 20194 58006
KBIH 191656Z AUTO 00000KT 10SM CLR 32/09 A3012 RMK AO2 SLP133 T03170094
KBIH 191556Z AUTO 00000KT 10SM CLR 29/11 A3013 RMK AO2 SLP138 T02940106
KBIH 191456Z AUTO 00000KT 10SM CLR 26/11 A3012 RMK AO2 SLP139 T02610111 51010
KBIH 191356Z AUTO 33004KT 10SM CLR 23/12 A3012 RMK AO2 SLP137 T02280122
KBIH 191256Z AUTO 35006KT 10SM CLR 19/13 A3010 RMK AO2 SLP135 T01940128
KBIH 191156Z AUTO 30006KT 10SM CLR 21/12 A3009 RMK AO2 SLP130 T02110122 10306 20211 51003
KBIH 191056Z AUTO 30006KT 10SM CLR 22/12 A3009 RMK AO2 SLP128 T02220122
KBIH 190956Z AUTO 33005KT 10SM CLR 23/12 A3008 RMK AO2 SLP121 T02280122
KBIH 190856Z AUTO 33003KT 10SM CLR 24/13 A3008 RMK AO2 SLP120 T02390128 51006